sensor_id;sensor_type;location;lat;lon;timestamp;temperature;humidity
7694;DHT22;3889;48.162;11.510;2022-08-14T00:02:23;15.40;99.90
7694;DHT22;3889;48.162;11.510;2022-08-14T00:04:54;15.30;99.90
7694;DHT22;3889;48.162;11.510;2022-08-14T00:07:22;15.20;99.90
7694;DHT22;3889;48.162;11.510;2022-08-14T00:09:52;15.10;99.90
7694;DHT22;3889;48.162;11.510;2022-08-14T00:12:43;15.20;99.90
7694;DHT22;3889;48.162;11.510;2022-08-14T00:15:26;15.20;99.90
7694;DHT22;3889;48.162;11.510;2022-08-14T00:17:56;15.20;99.90
7694;DHT22;3889;48.162;11.510;2022-08-14T00:20:28;15.10;99.90
7694;DHT22;3889;48.162;11.510;2022-08-14T00:23:08;15.00;99.90
7694;DHT22;3889;48.162;11.510;2022-08-14T00:25:44;14.90;99.90
7694;DHT22;3889;48.162;11.510;2022-08-14T00:28:33;14.80;99.90
7694;DHT22;3889;48.162;11.510;2022-08-14T00:31:03;14.80;99.90
7694;DHT22;3889;48.162;11.510;2022-08-14T00:33:34;14.70;99.90
7694;DHT22;3889;48.162;11.510;2022-08-14T00:36:20;14.70;99.90
7694;DHT22;3889;48.162;11.510;2022-08-14T00:39:12;14.70;99.90
7694;DHT22;3889;48.162;11.510;2022-08-14T00:41:44;14.80;99.90
7694;DHT22;3889;48.162;11.510;2022-08-14T00:44:12;14.70;99.90
7694;DHT22;3889;48.162;11.510;2022-08-14T00:46:53;14.60;99.90
7694;DHT22;3889;48.162;11.510;2022-08-14T00:49:24;14.60;99.90
7694;DHT22;3889;48.162;11.510;2022-08-14T00:51:57;14.60;99.90
7694;DHT22;3889;48.162;11.510;2022-08-14T00:54:25;14.70;99.90
7694;DHT22;3889;48.162;11.510;2022-08-14T00:56:53;14.60;99.90
7694;DHT22;3889;48.162;11.510;2022-08-14T00:59:23;14.60;99.90
7694;DHT22;3889;48.162;11.510;2022-08-14T01:01:53;14.60;99.90
7694;DHT22;3889;48.162;11.510;2022-08-14T01:04:25;14.60;99.90
7694;DHT22;3889;48.162;11.510;2022-08-14T01:07:15;14.70;99.90
7694;DHT22;3889;48.162;11.510;2022-08-14T01:09:48;14.60;99.90
7694;DHT22;3889;48.162;11.510;2022-08-14T01:12:17;14.60;99.90
7694;DHT22;3889;48.162;11.510;2022-08-14T01:14:54;14.60;99.90
7694;DHT22;3889;48.162;11.510;2022-08-14T01:17:25;14.60;99.90
7694;DHT22;3889;48.162;11.510;2022-08-14T01:20:16;14.60;99.90
7694;DHT22;3889;48.162;11.510;2022-08-14T01:23:08;14.50;99.90
7694;DHT22;3889;48.162;11.510;2022-08-14T01:25:42;14.50;99.90
7694;DHT22;3889;48.162;11.510;2022-08-14T01:28:12;14.50;99.90
7694;DHT22;3889;48.162;11.510;2022-08-14T01:31:00;14.40;99.90
7694;DHT22;3889;48.162;11.510;2022-08-14T01:33:32;14.40;99.90
7694;DHT22;3889;48.162;11.510;2022-08-14T01:36:20;14.40;99.90
7694;DHT22;3889;48.162;11.510;2022-08-14T01:38:52;14.40;99.90
7694;DHT22;3889;48.162;11.510;2022-08-14T01:41:25;14.30;99.90
7694;DHT22;3889;48.162;11.510;2022-08-14T01:43:57;14.30;99.90
7694;DHT22;3889;48.162;11.510;2022-08-14T01:46:28;14.20;99.90
7694;DHT22;3889;48.162;11.510;2022-08-14T01:49:05;14.20;99.90
7694;DHT22;3889;48.162;11.510;2022-08-14T01:51:35;14.30;99.90
7694;DHT22;3889;48.162;11.510;2022-08-14T01:54:10;14.30;99.90
7694;DHT22;3889;48.162;11.510;2022-08-14T01:56:40;14.40;99.90
7694;DHT22;3889;48.162;11.510;2022-08-14T01:59:20;14.40;99.90
7694;DHT22;3889;48.162;11.510;2022-08-14T02:01:54;14.30;99.90
7694;DHT22;3889;48.162;11.510;2022-08-14T02:04:27;14.10;99.90
7694;DHT22;3889;48.162;11.510;2022-08-14T02:07:16;14.10;99.90
7694;DHT22;3889;48.162;11.510;2022-08-14T02:10:07;14.10;99.90
7694;DHT22;3889;48.162;11.510;2022-08-14T02:12:41;14.10;99.90
7694;DHT22;3889;48.162;11.510;2022-08-14T02:15:14;14.10;99.90
7694;DHT22;3889;48.162;11.510;2022-08-14T02:17:45;14.10;99.90
7694;DHT22;3889;48.162;11.510;2022-08-14T02:20:14;14.20;99.90
7694;DHT22;3889;48.162;11.510;2022-08-14T02:22:50;14.30;99.90
7694;DHT22;3889;48.162;11.510;2022-08-14T02:25:22;14.30;99.90
7694;DHT22;3889;48.162;11.510;2022-08-14T02:27:55;14.40;99.90
7694;DHT22;3889;48.162;11.510;2022-08-14T02:30:43;14.30;99.90
7694;DHT22;3889;48.162;11.510;2022-08-14T02:33:11;14.20;99.90
7694;DHT22;3889;48.162;11.510;2022-08-14T02:35:40;14.20;99.90
7694;DHT22;3889;48.162;11.510;2022-08-14T02:38:09;14.20;99.90
7694;DHT22;3889;48.162;11.510;2022-08-14T02:40:57;14.20;99.90
7694;DHT22;3889;48.162;11.510;2022-08-14T02:43:26;14.10;99.90
7694;DHT22;3889;48.162;11.510;2022-08-14T02:46:11;14.10;99.90
7694;DHT22;3889;48.162;11.510;2022-08-14T02:48:46;14.10;99.90
7694;DHT22;3889;48.162;11.510;2022-08-14T02:51:30;14.10;99.90
7694;DHT22;3889;48.162;11.510;2022-08-14T02:53:59;14.10;99.90
7694;DHT22;3889;48.162;11.510;2022-08-14T02:56:28;14.10;99.90
7694;DHT22;3889;48.162;11.510;2022-08-14T02:59:17;14.10;99.90
7694;DHT22;3889;48.162;11.510;2022-08-14T03:01:47;14.10;99.90
7694;DHT22;3889;48.162;11.510;2022-08-14T03:04:17;14.00;99.90
7694;DHT22;3889;48.162;11.510;2022-08-14T03:06:47;14.00;99.90
7694;DHT22;3889;48.162;11.510;2022-08-14T03:09:32;13.80;99.90
7694;DHT22;3889;48.162;11.510;2022-08-14T03:12:22;13.80;99.90
7694;DHT22;3889;48.162;11.510;2022-08-14T03:14:58;13.90;99.90
7694;DHT22;3889;48.162;11.510;2022-08-14T03:17:26;14.00;99.90
7694;DHT22;3889;48.162;11.510;2022-08-14T03:20:14;14.00;99.90
7694;DHT22;3889;48.162;11.510;2022-08-14T03:22:42;13.80;99.90
7694;DHT22;3889;48.162;11.510;2022-08-14T03:25:16;13.80;99.90
7694;DHT22;3889;48.162;11.510;2022-08-14T03:27:46;13.70;99.90
7694;DHT22;3889;48.162;11.510;2022-08-14T03:30:25;13.70;99.90
7694;DHT22;3889;48.162;11.510;2022-08-14T03:33:06;13.60;99.90
7694;DHT22;3889;48.162;11.510;2022-08-14T03:35:36;13.60;99.90
7694;DHT22;3889;48.162;11.510;2022-08-14T03:38:25;13.70;99.90
7694;DHT22;3889;48.162;11.510;2022-08-14T03:41:14;13.70;99.90
7694;DHT22;3889;48.162;11.510;2022-08-14T03:43:45;13.70;99.90
7694;DHT22;3889;48.162;11.510;2022-08-14T03:46:24;13.70;99.90
7694;DHT22;3889;48.162;11.510;2022-08-14T03:49:13;13.70;99.90
7694;DHT22;3889;48.162;11.510;2022-08-14T03:51:54;13.70;99.90
7694;DHT22;3889;48.162;11.510;2022-08-14T03:54:24;13.60;99.90
7694;DHT22;3889;48.162;11.510;2022-08-14T03:56:52;13.60;99.90
7694;DHT22;3889;48.162;11.510;2022-08-14T03:59:21;13.60;99.90
7694;DHT22;3889;48.162;11.510;2022-08-14T04:01:54;13.60;99.90
7694;DHT22;3889;48.162;11.510;2022-08-14T04:04:27;13.50;99.90
7694;DHT22;3889;48.162;11.510;2022-08-14T04:06:56;13.60;99.90
7694;DHT22;3889;48.162;11.510;2022-08-14T04:09:25;13.60;99.90
7694;DHT22;3889;48.162;11.510;2022-08-14T04:11:53;13.60;99.90
7694;DHT22;3889;48.162;11.510;2022-08-14T04:14:23;13.50;99.90
7694;DHT22;3889;48.162;11.510;2022-08-14T04:16:51;13.50;99.90
7694;DHT22;3889;48.162;11.510;2022-08-14T04:19:18;13.50;99.90
7694;DHT22;3889;48.162;11.510;2022-08-14T04:21:49;13.60;99.90
7694;DHT22;3889;48.162;11.510;2022-08-14T04:24:30;13.60;99.90
7694;DHT22;3889;48.162;11.510;2022-08-14T04:27:04;13.70;99.90
7694;DHT22;3889;48.162;11.510;2022-08-14T04:29:37;13.70;99.90
7694;DHT22;3889;48.162;11.510;2022-08-14T04:32:06;13.70;99.90
7694;DHT22;3889;48.162;11.510;2022-08-14T04:34:54;13.80;99.90
7694;DHT22;3889;48.162;11.510;2022-08-14T04:37:23;13.70;99.90
7694;DHT22;3889;48.162;11.510;2022-08-14T04:40:11;13.70;99.90
7694;DHT22;3889;48.162;11.510;2022-08-14T04:42:56;13.80;99.90
7694;DHT22;3889;48.162;11.510;2022-08-14T04:45:44;13.80;99.90
7694;DHT22;3889;48.162;11.510;2022-08-14T04:48:17;13.80;99.90
7694;DHT22;3889;48.162;11.510;2022-08-14T04:51:08;13.80;99.90
7694;DHT22;3889;48.162;11.510;2022-08-14T04:53:39;13.80;99.90
7694;DHT22;3889;48.162;11.510;2022-08-14T04:56:10;13.90;99.90
7694;DHT22;3889;48.162;11.510;2022-08-14T04:59:00;14.00;99.90
7694;DHT22;3889;48.162;11.510;2022-08-14T05:01:38;14.10;99.90
7694;DHT22;3889;48.162;11.510;2022-08-14T05:04:11;14.10;99.90
7694;DHT22;3889;48.162;11.510;2022-08-14T05:06:42;14.20;99.90
7694;DHT22;3889;48.162;11.510;2022-08-14T05:09:09;14.20;99.90
7694;DHT22;3889;48.162;11.510;2022-08-14T05:11:40;14.30;99.90
7694;DHT22;3889;48.162;11.510;2022-08-14T05:14:10;14.30;99.90
7694;DHT22;3889;48.162;11.510;2022-08-14T05:16:59;14.40;99.90
7694;DHT22;3889;48.162;11.510;2022-08-14T05:19:28;14.50;99.90
7694;DHT22;3889;48.162;11.510;2022-08-14T05:21:58;14.60;99.90
7694;DHT22;3889;48.162;11.510;2022-08-14T05:24:45;14.70;99.90
7694;DHT22;3889;48.162;11.510;2022-08-14T05:27:17;14.80;99.90
7694;DHT22;3889;48.162;11.510;2022-08-14T05:29:50;14.90;99.90
7694;DHT22;3889;48.162;11.510;2022-08-14T05:32:20;15.10;99.90
7694;DHT22;3889;48.162;11.510;2022-08-14T05:34:52;15.20;99.90
7694;DHT22;3889;48.162;11.510;2022-08-14T05:37:24;15.40;99.90
7694;DHT22;3889;48.162;11.510;2022-08-14T05:39:53;15.40;99.90
7694;DHT22;3889;48.162;11.510;2022-08-14T05:42:21;15.60;99.90
7694;DHT22;3889;48.162;11.510;2022-08-14T05:44:58;15.70;99.90
7694;DHT22;3889;48.162;11.510;2022-08-14T05:47:27;15.80;99.90
7694;DHT22;3889;48.162;11.510;2022-08-14T05:50:06;15.90;99.90
7694;DHT22;3889;48.162;11.510;2022-08-14T05:52:45;16.10;99.90
7694;DHT22;3889;48.162;11.510;2022-08-14T05:55:13;16.20;99.90
7694;DHT22;3889;48.162;11.510;2022-08-14T05:57:50;16.30;99.90
7694;DHT22;3889;48.162;11.510;2022-08-14T06:00:21;16.40;99.90
7694;DHT22;3889;48.162;11.510;2022-08-14T06:02:57;16.50;99.90
7694;DHT22;3889;48.162;11.510;2022-08-14T06:05:27;16.70;99.90
7694;DHT22;3889;48.162;11.510;2022-08-14T06:07:56;16.80;99.90
7694;DHT22;3889;48.162;11.510;2022-08-14T06:10:25;16.90;99.90
7694;DHT22;3889;48.162;11.510;2022-08-14T06:12:55;17.20;99.90
7694;DHT22;3889;48.162;11.510;2022-08-14T06:15:24;17.30;99.90
7694;DHT22;3889;48.162;11.510;2022-08-14T06:17:57;17.50;99.90
7694;DHT22;3889;48.162;11.510;2022-08-14T06:20:28;17.60;99.90
7694;DHT22;3889;48.162;11.510;2022-08-14T06:22:56;17.80;99.90
7694;DHT22;3889;48.162;11.510;2022-08-14T06:25:25;17.90;99.90
7694;DHT22;3889;48.162;11.510;2022-08-14T06:27:54;18.00;99.90
7694;DHT22;3889;48.162;11.510;2022-08-14T06:30:27;18.10;99.90
7694;DHT22;3889;48.162;11.510;2022-08-14T06:33:15;18.20;99.90
7694;DHT22;3889;48.162;11.510;2022-08-14T06:35:44;18.30;99.90
7694;DHT22;3889;48.162;11.510;2022-08-14T06:38:14;18.50;99.90
7694;DHT22;3889;48.162;11.510;2022-08-14T06:40:43;18.60;99.90
7694;DHT22;3889;48.162;11.510;2022-08-14T06:43:12;18.70;99.90
7694;DHT22;3889;48.162;11.510;2022-08-14T06:45:42;18.80;99.90
7694;DHT22;3889;48.162;11.510;2022-08-14T06:48:22;19.00;99.90
7694;DHT22;3889;48.162;11.510;2022-08-14T06:50:51;19.30;99.90
7694;DHT22;3889;48.162;11.510;2022-08-14T06:53:20;19.40;99.90
7694;DHT22;3889;48.162;11.510;2022-08-14T06:55:53;19.70;99.90
7694;DHT22;3889;48.162;11.510;2022-08-14T06:58:26;19.80;99.90
7694;DHT22;3889;48.162;11.510;2022-08-14T07:00:58;19.90;99.90
7694;DHT22;3889;48.162;11.510;2022-08-14T07:03:54;20.10;99.90
7694;DHT22;3889;48.162;11.510;2022-08-14T07:06:51;20.10;99.90
7694;DHT22;3889;48.162;11.510;2022-08-14T07:09:24;20.30;99.90
7694;DHT22;3889;48.162;11.510;2022-08-14T07:11:53;20.40;99.90
7694;DHT22;3889;48.162;11.510;2022-08-14T07:14:23;20.60;99.90
7694;DHT22;3889;48.162;11.510;2022-08-14T07:16:52;20.70;99.90
7694;DHT22;3889;48.162;11.510;2022-08-14T07:19:21;20.80;99.90
7694;DHT22;3889;48.162;11.510;2022-08-14T07:21:49;21.00;99.90
7694;DHT22;3889;48.162;11.510;2022-08-14T07:24:17;21.10;99.90
7694;DHT22;3889;48.162;11.510;2022-08-14T07:26:56;21.30;99.90
7694;DHT22;3889;48.162;11.510;2022-08-14T07:29:25;21.40;99.90
7694;DHT22;3889;48.162;11.510;2022-08-14T07:31:54;21.50;99.90
7694;DHT22;3889;48.162;11.510;2022-08-14T07:34:24;21.70;99.90
7694;DHT22;3889;48.162;11.510;2022-08-14T07:37:02;21.80;99.90
7694;DHT22;3889;48.162;11.510;2022-08-14T07:39:31;22.00;99.90
7694;DHT22;3889;48.162;11.510;2022-08-14T07:42:00;22.10;99.90
7694;DHT22;3889;48.162;11.510;2022-08-14T07:44:28;22.20;99.90
7694;DHT22;3889;48.162;11.510;2022-08-14T07:47:12;22.40;99.90
7694;DHT22;3889;48.162;11.510;2022-08-14T07:49:50;22.50;99.90
7694;DHT22;3889;48.162;11.510;2022-08-14T07:52:22;22.50;99.90
7694;DHT22;3889;48.162;11.510;2022-08-14T07:54:57;22.70;99.90
7694;DHT22;3889;48.162;11.510;2022-08-14T07:57:26;22.80;99.90
7694;DHT22;3889;48.162;11.510;2022-08-14T07:59:55;22.80;99.90
7694;DHT22;3889;48.162;11.510;2022-08-14T08:02:29;22.90;99.90
7694;DHT22;3889;48.162;11.510;2022-08-14T08:04:59;23.10;99.90
7694;DHT22;3889;48.162;11.510;2022-08-14T08:07:29;23.20;99.90
7694;DHT22;3889;48.162;11.510;2022-08-14T08:09:58;23.40;99.90
7694;DHT22;3889;48.162;11.510;2022-08-14T08:12:28;23.40;99.90
7694;DHT22;3889;48.162;11.510;2022-08-14T08:14:59;23.50;99.90
7694;DHT22;3889;48.162;11.510;2022-08-14T08:17:34;23.60;99.90
7694;DHT22;3889;48.162;11.510;2022-08-14T08:20:14;23.70;99.90
7694;DHT22;3889;48.162;11.510;2022-08-14T08:22:46;23.70;99.90
7694;DHT22;3889;48.162;11.510;2022-08-14T08:25:22;23.80;99.90
7694;DHT22;3889;48.162;11.510;2022-08-14T08:27:54;24.00;99.90
7694;DHT22;3889;48.162;11.510;2022-08-14T08:30:23;24.00;99.90
7694;DHT22;3889;48.162;11.510;2022-08-14T08:32:55;24.20;99.90
7694;DHT22;3889;48.162;11.510;2022-08-14T08:35:26;24.20;99.90
7694;DHT22;3889;48.162;11.510;2022-08-14T08:38:14;24.30;99.90
7694;DHT22;3889;48.162;11.510;2022-08-14T08:41:03;24.40;99.90
7694;DHT22;3889;48.162;11.510;2022-08-14T08:43:36;24.60;99.90
7694;DHT22;3889;48.162;11.510;2022-08-14T08:46:06;24.70;99.90
7694;DHT22;3889;48.162;11.510;2022-08-14T08:48:48;24.70;99.90
7694;DHT22;3889;48.162;11.510;2022-08-14T08:51:22;24.70;99.80
7694;DHT22;3889;48.162;11.510;2022-08-14T08:53:57;24.90;99.90
7694;DHT22;3889;48.162;11.510;2022-08-14T08:56:35;25.00;99.90
7694;DHT22;3889;48.162;11.510;2022-08-14T08:59:18;25.10;98.00
7694;DHT22;3889;48.162;11.510;2022-08-14T09:01:51;25.20;99.40
7694;DHT22;3889;48.162;11.510;2022-08-14T09:04:23;25.10;98.30
7694;DHT22;3889;48.162;11.510;2022-08-14T09:06:53;25.10;97.90
7694;DHT22;3889;48.162;11.510;2022-08-14T09:09:37;25.20;98.30
7694;DHT22;3889;48.162;11.510;2022-08-14T09:12:24;25.20;97.80
7694;DHT22;3889;48.162;11.510;2022-08-14T09:15:00;25.20;97.90
7694;DHT22;3889;48.162;11.510;2022-08-14T09:17:28;25.20;99.40
7694;DHT22;3889;48.162;11.510;2022-08-14T09:19:56;25.20;97.40
7694;DHT22;3889;48.162;11.510;2022-08-14T09:22:31;25.40;97.70
7694;DHT22;3889;48.162;11.510;2022-08-14T09:25:03;25.40;97.60
7694;DHT22;3889;48.162;11.510;2022-08-14T09:27:33;25.60;98.60
7694;DHT22;3889;48.162;11.510;2022-08-14T09:30:02;25.70;98.30
7694;DHT22;3889;48.162;11.510;2022-08-14T09:33:01;25.70;97.90
7694;DHT22;3889;48.162;11.510;2022-08-14T09:35:46;25.80;97.30
7694;DHT22;3889;48.162;11.510;2022-08-14T09:38:45;25.90;96.40
7694;DHT22;3889;48.162;11.510;2022-08-14T09:44:46;26.00;97.40
7694;DHT22;3889;48.162;11.510;2022-08-14T09:47:17;25.90;96.10
7694;DHT22;3889;48.162;11.510;2022-08-14T09:49:45;26.10;97.40
7694;DHT22;3889;48.162;11.510;2022-08-14T09:52:19;26.10;95.80
7694;DHT22;3889;48.162;11.510;2022-08-14T09:55:01;26.10;96.50
7694;DHT22;3889;48.162;11.510;2022-08-14T09:57:30;26.20;96.60
7694;DHT22;3889;48.162;11.510;2022-08-14T10:00:09;26.40;95.50
7694;DHT22;3889;48.162;11.510;2022-08-14T10:02:57;26.50;93.90
7694;DHT22;3889;48.162;11.510;2022-08-14T10:05:33;26.60;94.20
7694;DHT22;3889;48.162;11.510;2022-08-14T10:08:18;26.70;94.80
7694;DHT22;3889;48.162;11.510;2022-08-14T10:10:53;26.70;93.10
7694;DHT22;3889;48.162;11.510;2022-08-14T10:13:28;26.70;90.00
7694;DHT22;3889;48.162;11.510;2022-08-14T10:16:16;26.60;92.00
7694;DHT22;3889;48.162;11.510;2022-08-14T10:19:04;26.70;92.10
7694;DHT22;3889;48.162;11.510;2022-08-14T10:21:36;26.60;91.50
7694;DHT22;3889;48.162;11.510;2022-08-14T10:24:28;26.80;91.70
7694;DHT22;3889;48.162;11.510;2022-08-14T10:27:13;26.90;92.80
7694;DHT22;3889;48.162;11.510;2022-08-14T10:29:47;26.90;92.10
7694;DHT22;3889;48.162;11.510;2022-08-14T10:32:17;26.90;91.80
7694;DHT22;3889;48.162;11.510;2022-08-14T10:35:04;27.00;90.90
7694;DHT22;3889;48.162;11.510;2022-08-14T10:37:45;27.20;91.60
7694;DHT22;3889;48.162;11.510;2022-08-14T10:40:24;27.20;90.40
7694;DHT22;3889;48.162;11.510;2022-08-14T10:43:19;27.30;92.90
7694;DHT22;3889;48.162;11.510;2022-08-14T10:45:54;27.40;93.70
7694;DHT22;3889;48.162;11.510;2022-08-14T10:48:55;27.40;89.60
7694;DHT22;3889;48.162;11.510;2022-08-14T10:51:24;27.30;88.20
7694;DHT22;3889;48.162;11.510;2022-08-14T10:53:56;27.30;86.90
7694;DHT22;3889;48.162;11.510;2022-08-14T10:56:42;27.30;88.50
7694;DHT22;3889;48.162;11.510;2022-08-14T10:59:13;27.50;88.50
7694;DHT22;3889;48.162;11.510;2022-08-14T11:01:40;27.40;89.40
7694;DHT22;3889;48.162;11.510;2022-08-14T11:04:19;27.50;85.90
7694;DHT22;3889;48.162;11.510;2022-08-14T11:06:57;27.60;89.00
7694;DHT22;3889;48.162;11.510;2022-08-14T11:09:25;27.60;84.70
7694;DHT22;3889;48.162;11.510;2022-08-14T11:11:58;27.60;82.10
7694;DHT22;3889;48.162;11.510;2022-08-14T11:14:52;27.70;82.10
7694;DHT22;3889;48.162;11.510;2022-08-14T11:17:29;27.60;82.90
7694;DHT22;3889;48.162;11.510;2022-08-14T11:20:00;27.50;81.90
7694;DHT22;3889;48.162;11.510;2022-08-14T11:22:29;27.60;83.70
7694;DHT22;3889;48.162;11.510;2022-08-14T11:25:19;27.60;85.30
7694;DHT22;3889;48.162;11.510;2022-08-14T11:27:50;27.60;83.30
7694;DHT22;3889;48.162;11.510;2022-08-14T11:30:23;27.70;81.60
7694;DHT22;3889;48.162;11.510;2022-08-14T11:33:11;27.90;83.30
7694;DHT22;3889;48.162;11.510;2022-08-14T11:35:47;28.00;83.40
7694;DHT22;3889;48.162;11.510;2022-08-14T11:38:16;28.00;84.00
7694;DHT22;3889;48.162;11.510;2022-08-14T11:40:47;28.00;82.20
7694;DHT22;3889;48.162;11.510;2022-08-14T11:43:18;28.20;87.20
7694;DHT22;3889;48.162;11.510;2022-08-14T11:45:56;27.80;85.10
7694;DHT22;3889;48.162;11.510;2022-08-14T11:48:31;27.90;84.80
7694;DHT22;3889;48.162;11.510;2022-08-14T11:51:21;28.00;82.80
7694;DHT22;3889;48.162;11.510;2022-08-14T11:54:00;28.00;82.10
7694;DHT22;3889;48.162;11.510;2022-08-14T11:56:33;27.80;82.00
7694;DHT22;3889;48.162;11.510;2022-08-14T11:59:01;27.90;84.40
7694;DHT22;3889;48.162;11.510;2022-08-14T12:01:30;28.10;83.00
7694;DHT22;3889;48.162;11.510;2022-08-14T12:04:11;28.20;83.20
7694;DHT22;3889;48.162;11.510;2022-08-14T12:06:59;28.30;85.00
7694;DHT22;3889;48.162;11.510;2022-08-14T12:09:30;28.20;81.30
7694;DHT22;3889;48.162;11.510;2022-08-14T12:12:00;28.30;80.60
7694;DHT22;3889;48.162;11.510;2022-08-14T12:14:28;28.30;79.90
7694;DHT22;3889;48.162;11.510;2022-08-14T12:17:05;28.30;83.90
7694;DHT22;3889;48.162;11.510;2022-08-14T12:19:48;28.40;81.90
7694;DHT22;3889;48.162;11.510;2022-08-14T12:22:31;28.50;77.80
7694;DHT22;3889;48.162;11.510;2022-08-14T12:25:01;28.50;77.20
7694;DHT22;3889;48.162;11.510;2022-08-14T12:27:39;28.40;78.20
7694;DHT22;3889;48.162;11.510;2022-08-14T12:30:26;28.40;77.70
7694;DHT22;3889;48.162;11.510;2022-08-14T12:33:05;28.40;74.40
7694;DHT22;3889;48.162;11.510;2022-08-14T12:35:35;28.10;77.40
7694;DHT22;3889;48.162;11.510;2022-08-14T12:38:05;28.20;81.30
7694;DHT22;3889;48.162;11.510;2022-08-14T12:40:46;28.50;79.10
7694;DHT22;3889;48.162;11.510;2022-08-14T12:43:15;28.50;76.80
7694;DHT22;3889;48.162;11.510;2022-08-14T12:45:48;28.40;73.90
7694;DHT22;3889;48.162;11.510;2022-08-14T12:48:19;28.50;77.40
7694;DHT22;3889;48.162;11.510;2022-08-14T12:50:58;28.40;74.90
7694;DHT22;3889;48.162;11.510;2022-08-14T12:53:33;28.20;85.80
7694;DHT22;3889;48.162;11.510;2022-08-14T12:56:04;28.50;81.20
7694;DHT22;3889;48.162;11.510;2022-08-14T12:58:55;28.60;80.00
7694;DHT22;3889;48.162;11.510;2022-08-14T13:01:25;28.70;80.60
7694;DHT22;3889;48.162;11.510;2022-08-14T13:04:04;28.60;80.50
7694;DHT22;3889;48.162;11.510;2022-08-14T13:06:33;28.50;83.90
7694;DHT22;3889;48.162;11.510;2022-08-14T13:09:03;28.40;85.30
7694;DHT22;3889;48.162;11.510;2022-08-14T13:11:38;28.50;87.50
7694;DHT22;3889;48.162;11.510;2022-08-14T13:14:11;28.20;87.30
7694;DHT22;3889;48.162;11.510;2022-08-14T13:16:44;28.10;88.40
7694;DHT22;3889;48.162;11.510;2022-08-14T13:19:18;28.30;88.10
7694;DHT22;3889;48.162;11.510;2022-08-14T13:21:51;28.10;87.80
7694;DHT22;3889;48.162;11.510;2022-08-14T13:24:37;27.90;87.40
7694;DHT22;3889;48.162;11.510;2022-08-14T13:27:05;27.90;88.20
7694;DHT22;3889;48.162;11.510;2022-08-14T13:29:39;28.00;90.70
7694;DHT22;3889;48.162;11.510;2022-08-14T13:32:13;28.10;90.20
7694;DHT22;3889;48.162;11.510;2022-08-14T13:34:43;28.30;85.90
7694;DHT22;3889;48.162;11.510;2022-08-14T13:37:14;28.10;86.70
7694;DHT22;3889;48.162;11.510;2022-08-14T13:39:46;28.20;88.60
7694;DHT22;3889;48.162;11.510;2022-08-14T13:42:24;28.10;88.20
7694;DHT22;3889;48.162;11.510;2022-08-14T13:44:58;28.00;87.20
7694;DHT22;3889;48.162;11.510;2022-08-14T13:47:28;28.10;89.10
7694;DHT22;3889;48.162;11.510;2022-08-14T13:50:02;28.10;87.20
7694;DHT22;3889;48.162;11.510;2022-08-14T13:52:33;28.20;87.80
7694;DHT22;3889;48.162;11.510;2022-08-14T13:55:20;28.20;86.70
7694;DHT22;3889;48.162;11.510;2022-08-14T13:57:51;28.20;86.30
7694;DHT22;3889;48.162;11.510;2022-08-14T14:00:31;28.20;86.30
7694;DHT22;3889;48.162;11.510;2022-08-14T14:03:03;28.20;86.30
7694;DHT22;3889;48.162;11.510;2022-08-14T14:05:37;28.10;87.30
7694;DHT22;3889;48.162;11.510;2022-08-14T14:08:20;28.00;87.60
7694;DHT22;3889;48.162;11.510;2022-08-14T14:11:09;27.90;87.70
7694;DHT22;3889;48.162;11.510;2022-08-14T14:13:41;27.90;84.60
7694;DHT22;3889;48.162;11.510;2022-08-14T14:16:12;27.90;85.50
7694;DHT22;3889;48.162;11.510;2022-08-14T14:18:56;28.00;84.50
7694;DHT22;3889;48.162;11.510;2022-08-14T14:21:37;28.00;84.60
7694;DHT22;3889;48.162;11.510;2022-08-14T14:24:06;28.10;84.20
7694;DHT22;3889;48.162;11.510;2022-08-14T14:26:44;28.10;85.10
7694;DHT22;3889;48.162;11.510;2022-08-14T14:29:12;28.10;83.50
7694;DHT22;3889;48.162;11.510;2022-08-14T14:31:42;28.10;83.20
7694;DHT22;3889;48.162;11.510;2022-08-14T14:34:15;28.10;84.90
7694;DHT22;3889;48.162;11.510;2022-08-14T14:36:58;28.00;86.40
7694;DHT22;3889;48.162;11.510;2022-08-14T14:39:32;27.90;88.40
7694;DHT22;3889;48.162;11.510;2022-08-14T14:42:21;27.90;85.40
7694;DHT22;3889;48.162;11.510;2022-08-14T14:45:09;27.90;85.80
7694;DHT22;3889;48.162;11.510;2022-08-14T14:47:42;27.90;85.60
7694;DHT22;3889;48.162;11.510;2022-08-14T14:50:12;27.80;82.60
7694;DHT22;3889;48.162;11.510;2022-08-14T14:52:44;27.70;85.20
7694;DHT22;3889;48.162;11.510;2022-08-14T14:55:13;27.70;85.30
7694;DHT22;3889;48.162;11.510;2022-08-14T14:57:43;27.70;83.80
7694;DHT22;3889;48.162;11.510;2022-08-14T15:00:18;27.70;85.20
7694;DHT22;3889;48.162;11.510;2022-08-14T15:02:48;27.80;85.00
7694;DHT22;3889;48.162;11.510;2022-08-14T15:05:18;27.70;87.20
7694;DHT22;3889;48.162;11.510;2022-08-14T15:07:49;27.70;84.30
7694;DHT22;3889;48.162;11.510;2022-08-14T15:10:20;27.70;85.10
7694;DHT22;3889;48.162;11.510;2022-08-14T15:12:58;27.70;85.40
7694;DHT22;3889;48.162;11.510;2022-08-14T15:15:30;27.60;84.00
7694;DHT22;3889;48.162;11.510;2022-08-14T15:18:04;27.60;84.60
7694;DHT22;3889;48.162;11.510;2022-08-14T15:20:52;27.60;86.30
7694;DHT22;3889;48.162;11.510;2022-08-14T15:23:23;27.60;83.60
7694;DHT22;3889;48.162;11.510;2022-08-14T15:26:11;27.60;83.90
7694;DHT22;3889;48.162;11.510;2022-08-14T15:28:59;27.50;83.60
7694;DHT22;3889;48.162;11.510;2022-08-14T15:31:29;27.50;86.00
7694;DHT22;3889;48.162;11.510;2022-08-14T15:33:56;27.40;85.80
7694;DHT22;3889;48.162;11.510;2022-08-14T15:37:01;27.40;88.40
7694;DHT22;3889;48.162;11.510;2022-08-14T15:39:31;27.50;86.10
7694;DHT22;3889;48.162;11.510;2022-08-14T15:42:04;27.30;87.60
7694;DHT22;3889;48.162;11.510;2022-08-14T15:44:42;27.40;87.40
7694;DHT22;3889;48.162;11.510;2022-08-14T15:47:25;27.30;88.30
7694;DHT22;3889;48.162;11.510;2022-08-14T15:49:55;27.40;86.60
7694;DHT22;3889;48.162;11.510;2022-08-14T15:52:25;27.30;86.10
7694;DHT22;3889;48.162;11.510;2022-08-14T15:55:03;27.30;85.60
7694;DHT22;3889;48.162;11.510;2022-08-14T15:57:33;27.30;86.90
7694;DHT22;3889;48.162;11.510;2022-08-14T16:00:03;27.20;86.70
7694;DHT22;3889;48.162;11.510;2022-08-14T16:03:09;27.20;86.90
7694;DHT22;3889;48.162;11.510;2022-08-14T16:05:42;27.30;85.50
7694;DHT22;3889;48.162;11.510;2022-08-14T16:08:12;27.30;85.30
7694;DHT22;3889;48.162;11.510;2022-08-14T16:10:58;27.30;85.70
7694;DHT22;3889;48.162;11.510;2022-08-14T16:13:27;27.40;86.20
7694;DHT22;3889;48.162;11.510;2022-08-14T16:16:10;27.30;86.40
7694;DHT22;3889;48.162;11.510;2022-08-14T16:18:59;27.20;87.10
7694;DHT22;3889;48.162;11.510;2022-08-14T16:21:29;27.20;86.50
7694;DHT22;3889;48.162;11.510;2022-08-14T16:23:59;27.20;85.70
7694;DHT22;3889;48.162;11.510;2022-08-14T16:26:28;27.20;87.40
7694;DHT22;3889;48.162;11.510;2022-08-14T16:29:00;27.10;87.80
7694;DHT22;3889;48.162;11.510;2022-08-14T16:31:32;27.00;86.30
7694;DHT22;3889;48.162;11.510;2022-08-14T16:34:02;27.00;87.20
7694;DHT22;3889;48.162;11.510;2022-08-14T16:36:51;27.00;87.40
7694;DHT22;3889;48.162;11.510;2022-08-14T16:39:21;26.90;87.50
7694;DHT22;3889;48.162;11.510;2022-08-14T16:41:53;26.80;88.40